Hulberton, New York
Current Conditions -  °F | °C
As of 2:54 PM on Sunday 23 Nov 2014 (Local Time) from KROC Reporting Station
Overcast Overcast  
Wind Chill: 52°   Ceiling: 7500
Heat Index: 52°   Visibility: 10mi
Dew Point: 41°   Wind: 6mph
Humidity: 66%   Direction: 170°S
Pressure: 29.96"   Gusts: NA
Location:  43.2139°N, 78.0559°W
Report Text: KROC 231954Z 17005KT 10SM SCT060 BKN075 OVC110 11/05 A2996 RMK AO2 SLP151 T01110050
Loading
Personal Weather Stations






























Interactive Weather Map New forecast layout! Learn more

10-Day Weather Forecast

Advertisements
Track Severe Weather on mobile